Time,TemperatureF,DewpointF,PressureIn,WindDirection,WindDirectionDegrees,WindSpeedMPH,WindSpeedGustMPH,Humidity,HourlyPrecipIn,Conditions,Clouds,dailyrainin,SolarRadiationWatts/m^2,SoftwareType,DateUTC
2013-02-26 00:00:00,31.1,28.5,29.90,NW,319,0.0,0.0,90,0.01,,,0.00,0,WeatherTracker,2013-02-26 05:00:00,
2013-02-26 00:05:00,31.0,28.7,29.89,East,96,2.0,0.0,91,0.01,,,0.00,0,WeatherTracker,2013-02-26 05:05:00,
2013-02-26 00:10:00,31.0,28.7,29.89,SE,128,2.0,0.0,91,0.01,,,0.00,0,WeatherTracker,2013-02-26 05:10:00,
2013-02-26 00:15:00,31.0,28.7,29.88,East,92,0.0,0.0,91,0.02,,,0.01,0,WeatherTracker,2013-02-26 05:15:00,
2013-02-26 00:20:00,31.0,28.7,29.88,NW,309,2.0,0.0,91,0.02,,,0.01,0,WeatherTracker,2013-02-26 05:20:00,
2013-02-26 00:25:00,31.0,28.7,29.87,NW,325,0.0,0.0,91,0.01,,,0.01,0,WeatherTracker,2013-02-26 05:25:00,
2013-02-26 00:30:00,31.1,28.8,29.87,NNW,335,0.0,0.0,91,0.01,,,0.01,0,WeatherTracker,2013-02-26 05:30:00,
2013-02-26 00:35:00,31.1,28.8,29.86,NW,309,2.0,0.0,91,0.01,,,0.01,0,WeatherTracker,2013-02-26 05:35:00,
2013-02-26 00:40:00,31.0,28.7,29.86,WNW,294,1.0,0.0,91,0.01,,,0.01,0,WeatherTracker,2013-02-26 05:40:00,
2013-02-26 00:45:00,31.0,28.7,29.87,West,270,1.0,0.0,91,0.01,,,0.01,0,WeatherTracker,2013-02-26 05:45:00,
2013-02-26 00:50:00,30.9,28.6,29.87,NW,321,2.0,0.0,91,0.02,,,0.02,0,WeatherTracker,2013-02-26 05:50:00,
2013-02-26 00:56:00,30.9,28.6,29.86,NNW,344,4.0,0.0,91,0.02,,,0.02,0,WeatherTracker,2013-02-26 05:56:00,
2013-02-26 01:01:00,30.9,28.9,29.86,NNE,33,4.0,0.0,92,0.02,,,0.02,0,WeatherTracker,2013-02-26 06:01:00,
2013-02-26 01:06:00,30.8,28.8,29.86,NW,323,1.0,0.0,92,0.02,,,0.02,0,WeatherTracker,2013-02-26 06:06:00,
2013-02-26 01:11:00,30.8,28.8,29.86,NNW,331,2.0,0.0,92,0.03,,,0.03,0,WeatherTracker,2013-02-26 06:11:00,
2013-02-26 01:16:00,30.8,28.8,29.86,NW,309,1.0,0.0,92,0.03,,,0.04,0,WeatherTracker,2013-02-26 06:16:00,
2013-02-26 01:21:00,30.8,28.8,29.86,NNW,342,0.0,0.0,92,0.03,,,0.04,0,WeatherTracker,2013-02-26 06:21:00,
2013-02-26 01:26:00,30.7,28.7,29.86,NNW,344,1.0,0.0,92,0.03,,,0.04,0,WeatherTracker,2013-02-26 06:26:00,
2013-02-26 01:31:00,30.7,28.7,29.85,North,360,1.0,0.0,92,0.03,,,0.04,0,WeatherTracker,2013-02-26 06:31:00,
2013-02-26 01:36:00,30.7,28.7,29.85,WNW,301,0.0,0.0,92,0.04,,,0.05,0,WeatherTracker,2013-02-26 06:36:00,
2013-02-26 01:41:00,30.7,28.7,29.84,NNW,333,1.0,0.0,92,0.04,,,0.05,0,WeatherTracker,2013-02-26 06:41:00,
2013-02-26 01:46:00,30.7,28.7,29.84,North,5,2.0,0.0,92,0.05,,,0.06,0,WeatherTracker,2013-02-26 06:46:00,
2013-02-26 01:51:00,30.7,28.7,29.85,ENE,78,1.0,0.0,92,0.04,,,0.06,0,WeatherTracker,2013-02-26 06:51:00,
2013-02-26 01:56:00,30.6,28.6,29.84,NNE,21,0.0,0.0,92,0.04,,,0.06,0,WeatherTracker,2013-02-26 06:56:00,
2013-02-26 02:01:00,30.6,28.6,29.84,NNW,331,0.0,0.0,92,0.05,,,0.07,0,WeatherTracker,2013-02-26 07:01:00,
2013-02-26 02:06:00,30.5,28.5,29.84,East,97,0.0,0.0,92,0.06,,,0.08,0,WeatherTracker,2013-02-26 07:06:00,
2013-02-26 02:11:00,30.4,28.4,29.83,WNW,290,0.0,0.0,92,0.05,,,0.08,0,WeatherTracker,2013-02-26 07:11:00,
2013-02-26 02:16:00,30.4,28.4,29.83,WNW,290,0.0,0.0,92,0.05,,,0.09,0,WeatherTracker,2013-02-26 07:16:00,
2013-02-26 02:21:00,30.3,28.3,29.82,WNW,290,0.0,0.0,92,0.06,,,0.10,0,WeatherTracker,2013-02-26 07:21:00,
2013-02-26 02:26:00,30.4,28.4,29.81,WNW,290,0.0,0.0,92,0.06,,,0.10,0,WeatherTracker,2013-02-26 07:26:00,
2013-02-26 02:31:00,30.3,28.3,29.81,WNW,290,0.0,0.0,92,0.06,,,0.10,0,WeatherTracker,2013-02-26 07:31:00,
2013-02-26 02:36:00,30.2,28.2,29.81,WNW,290,0.0,0.0,92,0.06,,,0.11,0,WeatherTracker,2013-02-26 07:36:00,
2013-02-26 02:41:00,30.2,28.2,29.81,WNW,290,0.0,0.0,92,0.06,,,0.11,0,WeatherTracker,2013-02-26 07:41:00,
2013-02-26 02:46:00,30.2,28.2,29.81,WNW,290,0.0,0.0,92,0.06,,,0.12,0,WeatherTracker,2013-02-26 07:46:00,
2013-02-26 02:51:00,30.3,28.3,29.81,WNW,290,0.0,0.0,92,0.06,,,0.12,0,WeatherTracker,2013-02-26 07:51:00,
2013-02-26 02:56:00,30.2,28.2,29.81,WNW,290,0.0,0.0,92,0.06,,,0.12,0,WeatherTracker,2013-02-26 07:56:00,
2013-02-26 03:02:00,30.2,28.2,29.81,WNW,290,0.0,0.0,92,0.07,,,0.14,0,WeatherTracker,2013-02-26 08:02:00,
2013-02-26 03:07:00,30.2,28.2,29.80,WNW,290,0.0,0.0,92,0.07,,,0.15,0,WeatherTracker,2013-02-26 08:07:00,
2013-02-26 03:12:00,30.3,28.3,29.79,WNW,290,0.0,0.0,92,0.09,,,0.17,0,WeatherTracker,2013-02-26 08:12:00,
2013-02-26 03:17:00,30.4,28.4,29.79,WNW,290,0.0,0.0,92,0.12,,,0.21,0,WeatherTracker,2013-02-26 08:17:00,
2013-02-26 03:22:00,30.4,28.4,29.79,WNW,290,0.0,0.0,92,0.14,,,0.24,0,WeatherTracker,2013-02-26 08:22:00,
2013-02-26 03:27:00,30.7,28.9,29.80,WNW,290,0.0,0.0,93,0.16,,,0.26,0,WeatherTracker,2013-02-26 08:27:00,
2013-02-26 03:32:00,30.8,29.0,29.80,WNW,290,0.0,0.0,93,0.19,,,0.29,0,WeatherTracker,2013-02-26 08:32:00,
2013-02-26 03:37:00,31.1,29.3,29.81,WNW,290,0.0,0.0,93,0.20,,,0.31,0,WeatherTracker,2013-02-26 08:37:00,
2013-02-26 03:42:00,31.2,29.4,29.80,WNW,290,0.0,0.0,93,0.23,,,0.34,0,WeatherTracker,2013-02-26 08:42:00,
2013-02-26 03:47:00,31.1,29.3,29.81,WNW,290,0.0,0.0,93,0.24,,,0.36,0,WeatherTracker,2013-02-26 08:47:00,
2013-02-26 03:52:00,31.1,29.1,29.79,WNW,290,0.0,0.0,92,0.26,,,0.38,0,WeatherTracker,2013-02-26 08:52:00,
2013-02-26 03:57:00,31.2,29.2,29.79,WNW,290,0.0,0.0,92,0.28,,,0.40,0,WeatherTracker,2013-02-26 08:57:00,
2013-02-26 04:02:00,31.2,29.4,29.79,WNW,290,0.0,0.0,93,0.28,,,0.42,0,WeatherTracker,2013-02-26 09:02:00,
2013-02-26 04:07:00,31.2,29.2,29.80,WNW,290,0.0,0.0,92,0.28,,,0.43,0,WeatherTracker,2013-02-26 09:07:00,
2013-02-26 04:12:00,31.2,29.2,29.79,WNW,290,0.0,0.0,92,0.27,,,0.45,0,WeatherTracker,2013-02-26 09:12:00,
2013-02-26 04:17:00,31.3,29.3,29.79,WNW,290,0.0,0.0,92,0.25,,,0.46,0,WeatherTracker,2013-02-26 09:17:00,
2013-02-26 04:22:00,31.3,29.3,29.79,WNW,290,0.0,0.0,92,0.24,,,0.48,0,WeatherTracker,2013-02-26 09:22:00,
2013-02-26 04:27:00,31.3,29.3,29.78,WNW,290,0.0,0.0,92,0.24,,,0.50,0,WeatherTracker,2013-02-26 09:27:00,
2013-02-26 04:32:00,31.3,29.5,29.77,WNW,290,0.0,0.0,93,0.22,,,0.51,0,WeatherTracker,2013-02-26 09:32:00,
2013-02-26 04:38:00,31.3,29.5,29.77,WNW,290,0.0,0.0,93,0.21,,,0.53,0,WeatherTracker,2013-02-26 09:38:00,
2013-02-26 04:43:00,31.3,29.5,29.77,WNW,290,0.0,0.0,93,0.20,,,0.54,0,WeatherTracker,2013-02-26 09:43:00,
2013-02-26 04:48:00,31.3,29.5,29.77,WNW,290,0.0,0.0,93,0.20,,,0.56,0,WeatherTracker,2013-02-26 09:48:00,
2013-02-26 04:53:00,31.2,29.4,29.77,WNW,290,0.0,0.0,93,0.20,,,0.58,0,WeatherTracker,2013-02-26 09:53:00,
2013-02-26 04:58:00,31.3,29.5,29.78,WNW,290,0.0,0.0,93,0.19,,,0.60,0,WeatherTracker,2013-02-26 09:58:00,
2013-02-26 05:03:00,31.4,29.6,29.78,WNW,290,0.0,0.0,93,0.20,,,0.62,0,WeatherTracker,2013-02-26 10:03:00,
2013-02-26 05:08:00,31.5,29.7,29.77,WNW,290,0.0,0.0,93,0.21,,,0.64,0,WeatherTracker,2013-02-26 10:08:00,
2013-02-26 05:13:00,31.6,29.8,29.77,WNW,290,0.0,0.0,93,0.22,,,0.67,0,WeatherTracker,2013-02-26 10:13:00,
2013-02-26 05:18:00,31.6,29.8,29.77,WNW,290,0.0,0.0,93,0.22,,,0.69,0,WeatherTracker,2013-02-26 10:18:00,
2013-02-26 05:23:00,31.6,29.8,29.77,WNW,290,0.0,0.0,93,0.23,,,0.71,0,WeatherTracker,2013-02-26 10:23:00,
2013-02-26 05:28:00,31.5,29.7,29.76,WNW,290,0.0,0.0,93,0.22,,,0.72,0,WeatherTracker,2013-02-26 10:28:00,
2013-02-26 05:33:00,31.6,29.8,29.76,WNW,290,0.0,0.0,93,0.22,,,0.74,0,WeatherTracker,2013-02-26 10:33:00,
2013-02-26 05:38:00,31.6,29.8,29.76,WNW,290,0.0,0.0,93,0.23,,,0.76,0,WeatherTracker,2013-02-26 10:38:00,
2013-02-26 05:43:00,31.5,29.7,29.76,WNW,290,0.0,0.0,93,0.23,,,0.78,0,WeatherTracker,2013-02-26 10:43:00,
2013-02-26 05:48:00,31.5,29.7,29.75,WNW,290,0.0,0.0,93,0.24,,,0.80,0,WeatherTracker,2013-02-26 10:48:00,
2013-02-26 05:53:00,31.5,29.7,29.74,WNW,290,0.0,0.0,93,0.23,,,0.81,0,WeatherTracker,2013-02-26 10:53:00,
2013-02-26 05:58:00,31.5,29.7,29.73,WNW,290,0.0,0.0,93,0.22,,,0.82,0,WeatherTracker,2013-02-26 10:58:00,
2013-02-26 06:03:00,31.4,29.6,29.73,WNW,290,0.0,0.0,93,0.21,,,0.83,0,WeatherTracker,2013-02-26 11:03:00,
2013-02-26 06:08:00,31.4,29.6,29.73,WNW,290,0.0,0.0,93,0.20,,,0.85,0,WeatherTracker,2013-02-26 11:08:00,
2013-02-26 06:13:00,31.4,29.6,29.73,WNW,290,0.0,0.0,93,0.20,,,0.87,0,WeatherTracker,2013-02-26 11:13:00,
2013-02-26 06:18:00,31.5,29.7,29.73,WNW,290,0.0,0.0,93,0.20,,,0.89,0,WeatherTracker,2013-02-26 11:18:00,
2013-02-26 06:23:00,31.6,29.8,29.74,WNW,290,0.0,0.0,93,0.20,,,0.91,0,WeatherTracker,2013-02-26 11:23:00,
2013-02-26 06:28:00,31.7,29.9,29.73,WNW,290,0.0,0.0,93,0.22,,,0.94,0,WeatherTracker,2013-02-26 11:28:00,
2013-02-26 06:33:00,31.7,29.9,29.73,WNW,290,0.0,0.0,93,0.22,,,0.96,0,WeatherTracker,2013-02-26 11:33:00,
2013-02-26 06:39:00,31.7,29.9,29.73,WNW,290,0.0,0.0,93,0.23,,,0.99,0,WeatherTracker,2013-02-26 11:39:00,
2013-02-26 06:43:00,31.7,29.9,29.75,WNW,290,0.0,0.0,93,0.24,,,1.02,0,WeatherTracker,2013-02-26 11:43:00,
2013-02-26 06:49:00,31.7,29.9,29.74,WNW,290,0.0,0.0,93,0.26,,,1.06,0,WeatherTracker,2013-02-26 11:49:00,
2013-02-26 06:54:00,31.8,30.0,29.73,WNW,290,0.0,0.0,93,0.28,,,1.10,0,WeatherTracker,2013-02-26 11:54:00,
2013-02-26 06:59:00,31.8,30.0,29.74,WNW,290,0.0,0.0,93,0.31,,,1.13,0,WeatherTracker,2013-02-26 11:59:00,
2013-02-26 07:03:00,31.8,30.0,29.71,WNW,290,0.0,0.0,93,0.32,,,1.16,0,WeatherTracker,2013-02-26 12:03:00,
2013-02-26 07:09:00,31.7,29.9,29.71,WNW,290,0.0,0.0,93,0.35,,,1.20,0,WeatherTracker,2013-02-26 12:09:00,
2013-02-26 07:14:00,31.7,29.9,29.71,WNW,290,0.0,0.0,93,0.36,,,1.23,0,WeatherTracker,2013-02-26 12:14:00,
2013-02-26 07:19:00,31.7,29.9,29.70,WNW,290,0.0,0.0,93,0.40,,,1.29,0,WeatherTracker,2013-02-26 12:19:00,
2013-02-26 07:24:00,31.8,30.0,29.70,WNW,290,0.0,0.0,93,0.41,,,1.32,0,WeatherTracker,2013-02-26 12:24:00,
2013-02-26 07:29:00,31.8,30.0,29.69,WNW,290,0.0,0.0,93,0.41,,,1.35,0,WeatherTracker,2013-02-26 12:29:00,
2013-02-26 07:34:00,31.7,29.9,29.68,WNW,290,0.0,0.0,93,0.41,,,1.37,0,WeatherTracker,2013-02-26 12:34:00,
2013-02-26 07:39:00,31.7,29.9,29.69,WNW,290,0.0,0.0,93,0.40,,,1.40,0,WeatherTracker,2013-02-26 12:39:00,
2013-02-26 07:44:00,31.8,30.0,29.70,WNW,290,0.0,0.0,93,0.40,,,1.42,0,WeatherTracker,2013-02-26 12:44:00,
2013-02-26 07:49:00,31.9,30.1,29.69,WNW,290,0.0,0.0,93,0.39,,,1.46,0,WeatherTracker,2013-02-26 12:49:00,
2013-02-26 07:54:00,31.9,30.1,29.68,WNW,290,0.0,0.0,93,0.40,,,1.50,5,WeatherTracker,2013-02-26 12:54:00,
2013-02-26 07:59:00,31.9,30.1,29.69,WNW,290,0.0,0.0,93,0.42,,,1.55,5,WeatherTracker,2013-02-26 12:59:00,
2013-02-26 08:04:00,32.0,30.2,29.71,WNW,290,0.0,0.0,93,0.41,,,1.57,5,WeatherTracker,2013-02-26 13:04:00,
2013-02-26 08:09:00,32.1,30.3,29.71,WNW,290,0.0,0.0,93,0.39,,,1.60,9,WeatherTracker,2013-02-26 13:09:00,
2013-02-26 08:14:00,32.1,30.3,29.70,WNW,290,0.0,0.0,93,0.41,,,1.64,9,WeatherTracker,2013-02-26 13:14:00,
2013-02-26 08:19:00,32.1,30.3,29.70,WNW,290,0.0,0.0,93,0.38,,,1.67,9,WeatherTracker,2013-02-26 13:19:00,
2013-02-26 08:24:00,32.1,30.3,29.69,WNW,290,0.0,0.0,93,0.39,,,1.71,12,WeatherTracker,2013-02-26 13:24:00,
2013-02-26 08:29:00,32.1,30.3,29.68,WNW,290,0.0,0.0,93,0.40,,,1.75,12,WeatherTracker,2013-02-26 13:29:00,
2013-02-26 08:34:00,32.1,30.3,29.68,WNW,290,0.0,0.0,93,0.41,,,1.78,18,WeatherTracker,2013-02-26 13:34:00,
2013-02-26 08:39:00,32.1,30.3,29.68,WNW,290,0.0,0.0,93,0.40,,,1.80,23,WeatherTracker,2013-02-26 13:39:00,
2013-02-26 08:44:00,32.1,30.3,29.68,WNW,290,0.0,0.0,93,0.39,,,1.82,12,WeatherTracker,2013-02-26 13:44:00,
2013-02-26 08:49:00,32.0,30.2,29.68,WNW,290,0.0,0.0,93,0.38,,,1.84,9,WeatherTracker,2013-02-26 13:49:00,
2013-02-26 08:54:00,32.0,30.2,29.67,WNW,290,0.0,0.0,93,0.37,,,1.88,7,WeatherTracker,2013-02-26 13:54:00,
2013-02-26 08:59:00,32.0,30.2,29.66,WNW,290,0.0,0.0,93,0.36,,,1.91,12,WeatherTracker,2013-02-26 13:59:00,
2013-02-26 09:04:00,32.0,30.2,29.65,WNW,290,0.0,0.0,93,0.39,,,1.96,9,WeatherTracker,2013-02-26 14:04:00,
2013-02-26 09:10:00,32.1,30.3,29.66,WNW,290,0.0,0.0,93,0.37,,,1.98,12,WeatherTracker,2013-02-26 14:10:00,
2013-02-26 09:15:00,32.0,30.2,29.66,WNW,290,0.0,0.0,93,0.36,,,2.00,14,WeatherTracker,2013-02-26 14:15:00,
2013-02-26 09:20:00,32.1,30.3,29.65,WNW,290,0.0,0.0,93,0.35,,,2.02,16,WeatherTracker,2013-02-26 14:20:00,
2013-02-26 09:25:00,32.1,30.3,29.67,WNW,290,0.0,0.0,93,0.32,,,2.04,14,WeatherTracker,2013-02-26 14:25:00,
2013-02-26 09:30:00,32.1,30.3,29.66,WNW,290,0.0,0.0,93,0.31,,,2.07,11,WeatherTracker,2013-02-26 14:30:00,
2013-02-26 09:35:00,32.1,30.3,29.65,WNW,290,0.0,0.0,93,0.32,,,2.10,18,WeatherTracker,2013-02-26 14:35:00,
2013-02-26 09:40:00,32.1,30.3,29.65,WNW,290,0.0,0.0,93,0.33,,,2.13,19,WeatherTracker,2013-02-26 14:40:00,
2013-02-26 09:45:00,32.1,30.3,29.66,WNW,290,0.0,0.0,93,0.32,,,2.14,14,WeatherTracker,2013-02-26 14:45:00,
2013-02-26 09:50:00,32.2,30.4,29.66,WNW,290,0.0,0.0,93,0.32,,,2.16,25,WeatherTracker,2013-02-26 14:50:00,
2013-02-26 09:55:00,32.1,30.3,29.65,WNW,290,0.0,0.0,93,0.31,,,2.19,39,WeatherTracker,2013-02-26 14:55:00,
2013-02-26 10:00:00,32.2,30.4,29.64,WNW,290,0.0,0.0,93,0.28,,,2.20,69,WeatherTracker,2013-02-26 15:00:00,
2013-02-26 10:05:00,32.2,30.4,29.63,WNW,290,0.0,0.0,93,0.25,,,2.21,37,WeatherTracker,2013-02-26 15:05:00,
2013-02-26 10:10:00,32.2,30.4,29.62,WNW,290,0.0,0.0,93,0.24,,,2.22,51,WeatherTracker,2013-02-26 15:10:00,
2013-02-26 10:15:00,32.2,30.4,29.61,WNW,290,0.0,0.0,93,0.23,,,2.23,32,WeatherTracker,2013-02-26 15:15:00,
2013-02-26 10:20:00,32.1,30.3,29.62,WNW,290,0.0,0.0,93,0.21,,,2.24,32,WeatherTracker,2013-02-26 15:20:00,
2013-02-26 10:25:00,32.1,30.3,29.62,WNW,290,0.0,0.0,93,0.20,,,2.25,56,WeatherTracker,2013-02-26 15:25:00,
2013-02-26 10:30:00,32.1,30.3,29.61,WNW,290,0.0,0.0,93,0.18,,,2.25,25,WeatherTracker,2013-02-26 15:30:00,
2013-02-26 10:35:00,32.1,30.3,29.60,WNW,290,0.0,0.0,93,0.20,,,2.27,44,WeatherTracker,2013-02-26 15:35:00,
2013-02-26 10:40:00,32.2,30.4,29.59,WNW,290,0.0,0.0,93,0.20,,,2.27,54,WeatherTracker,2013-02-26 15:40:00,
2013-02-26 10:45:00,32.2,30.7,29.59,WNW,290,0.0,0.0,94,0.15,,,2.28,37,WeatherTracker,2013-02-26 15:45:00,
2013-02-26 10:50:00,32.2,30.4,29.58,WNW,290,0.0,0.0,93,0.15,,,2.28,44,WeatherTracker,2013-02-26 15:50:00,
2013-02-26 10:55:00,32.2,30.4,29.58,WNW,290,0.0,0.0,93,0.16,,,2.29,42,WeatherTracker,2013-02-26 15:55:00,
2013-02-26 11:01:00,32.1,30.3,29.58,WNW,290,0.0,0.0,93,0.09,,,2.29,49,WeatherTracker,2013-02-26 16:01:00,
2013-02-26 11:06:00,32.1,30.3,29.59,WNW,290,0.0,0.0,93,0.09,,,2.29,37,WeatherTracker,2013-02-26 16:06:00,
2013-02-26 11:10:00,32.2,30.4,29.59,WNW,290,0.0,0.0,93,0.10,,,2.30,28,WeatherTracker,2013-02-26 16:10:00,
2013-02-26 11:15:00,32.2,30.4,29.58,WNW,290,0.0,0.0,93,0.07,,,2.30,32,WeatherTracker,2013-02-26 16:15:00,
2013-02-26 11:21:00,32.2,30.4,29.59,WNW,290,0.0,0.0,93,0.07,,,2.30,30,WeatherTracker,2013-02-26 16:21:00,
2013-02-26 11:26:00,32.3,30.8,29.59,WNW,290,0.0,0.0,94,0.08,,,2.31,39,WeatherTracker,2013-02-26 16:26:00,
2013-02-26 11:31:00,32.4,30.6,29.58,WNW,289,0.0,0.0,93,0.07,,,2.32,47,WeatherTracker,2013-02-26 16:31:00,
2013-02-26 11:36:00,32.4,30.6,29.59,WNW,289,0.0,0.0,93,0.06,,,2.33,67,WeatherTracker,2013-02-26 16:36:00,
2013-02-26 11:41:00,32.5,30.7,29.58,WNW,289,0.0,0.0,93,0.06,,,2.33,56,WeatherTracker,2013-02-26 16:41:00,
2013-02-26 11:46:00,32.5,31.0,29.58,WNW,289,0.0,0.0,94,0.05,,,2.33,81,WeatherTracker,2013-02-26 16:46:00,
2013-02-26 11:51:00,32.4,30.6,29.56,WNW,289,0.0,0.0,93,0.06,,,2.34,49,WeatherTracker,2013-02-26 16:51:00,
2013-02-26 11:56:00,32.5,30.7,29.58,WNW,288,0.0,0.0,93,0.06,,,2.35,35,WeatherTracker,2013-02-26 16:56:00,
2013-02-26 12:01:00,32.5,30.7,29.57,WNW,289,0.0,0.0,93,0.07,,,2.36,79,WeatherTracker,2013-02-26 17:01:00,
2013-02-26 12:06:00,32.5,30.7,29.57,WNW,288,0.0,0.0,93,0.08,,,2.37,47,WeatherTracker,2013-02-26 17:06:00,
2013-02-26 12:11:00,32.4,30.6,29.56,WNW,288,0.0,0.0,93,0.10,,,2.40,44,WeatherTracker,2013-02-26 17:11:00,
2013-02-26 12:16:00,32.4,30.6,29.57,WNW,288,0.0,0.0,93,0.11,,,2.41,30,WeatherTracker,2013-02-26 17:16:00,
2013-02-26 12:21:00,32.4,30.6,29.57,WNW,289,0.0,0.0,93,0.12,,,2.42,39,WeatherTracker,2013-02-26 17:21:00,
2013-02-26 12:26:00,32.4,30.6,29.58,WNW,288,0.0,0.0,93,0.12,,,2.43,47,WeatherTracker,2013-02-26 17:26:00,
2013-02-26 12:31:00,32.5,31.0,29.57,WNW,288,0.0,0.0,94,0.11,,,2.43,33,WeatherTracker,2013-02-26 17:31:00,
2013-02-26 12:36:00,32.5,31.0,29.57,WNW,288,0.0,0.0,94,0.11,,,2.44,53,WeatherTracker,2013-02-26 17:36:00,
2013-02-26 12:41:00,32.5,31.0,29.57,WNW,288,0.0,0.0,94,0.13,,,2.46,23,WeatherTracker,2013-02-26 17:41:00,
2013-02-26 12:46:00,32.5,31.0,29.56,WNW,288,0.0,0.0,94,0.13,,,2.47,46,WeatherTracker,2013-02-26 17:46:00,
2013-02-26 12:51:00,32.6,31.1,29.56,WNW,288,0.0,0.0,94,0.14,,,2.48,53,WeatherTracker,2013-02-26 17:51:00,
2013-02-26 12:56:00,32.7,31.2,29.55,WNW,288,0.0,0.0,94,0.14,,,2.49,95,WeatherTracker,2013-02-26 17:56:00,
2013-02-26 13:01:00,32.7,31.2,29.55,WNW,288,0.0,0.0,94,0.14,,,2.50,67,WeatherTracker,2013-02-26 18:01:00,
2013-02-26 13:06:00,32.8,31.3,29.55,WNW,288,0.0,0.0,94,0.13,,,2.50,62,WeatherTracker,2013-02-26 18:06:00,
2013-02-26 13:11:00,32.9,31.4,29.55,WNW,288,0.0,0.0,94,0.10,,,2.50,53,WeatherTracker,2013-02-26 18:11:00,
2013-02-26 13:16:00,32.9,31.4,29.55,WNW,288,0.0,0.0,94,0.08,,,2.50,77,WeatherTracker,2013-02-26 18:16:00,
2013-02-26 13:22:00,32.8,31.3,29.54,WNW,288,0.0,0.0,94,0.08,,,2.50,62,WeatherTracker,2013-02-26 18:22:00,
2013-02-26 13:27:00,32.9,31.4,29.54,WNW,288,0.0,0.0,94,0.08,,,2.51,104,WeatherTracker,2013-02-26 18:27:00,
2013-02-26 13:32:00,33.0,31.5,29.53,WNW,288,0.0,0.0,94,0.08,,,2.51,79,WeatherTracker,2013-02-26 18:32:00,
2013-02-26 13:37:00,33.1,31.6,29.52,WNW,288,0.0,0.0,94,0.06,,,2.51,114,WeatherTracker,2013-02-26 18:37:00,
2013-02-26 13:42:00,33.1,31.6,29.52,WNW,288,0.0,0.0,94,0.05,,,2.51,139,WeatherTracker,2013-02-26 18:42:00,
2013-02-26 13:47:00,33.2,31.7,29.51,WNW,287,0.0,0.0,94,0.05,,,2.52,69,WeatherTracker,2013-02-26 18:47:00,
2013-02-26 13:52:00,33.3,31.8,29.51,WNW,287,0.0,0.0,94,0.04,,,2.52,86,WeatherTracker,2013-02-26 18:52:00,
2013-02-26 13:57:00,33.5,32.0,29.51,WNW,288,0.0,0.0,94,0.03,,,2.52,104,WeatherTracker,2013-02-26 18:57:00,
2013-02-26 14:02:00,33.5,32.0,29.50,WNW,287,0.0,0.0,94,0.02,,,2.52,91,WeatherTracker,2013-02-26 19:02:00,
2013-02-26 14:07:00,33.6,32.1,29.50,WNW,287,0.0,0.0,94,0.02,,,2.52,79,WeatherTracker,2013-02-26 19:07:00,
2013-02-26 14:12:00,33.7,32.2,29.50,WNW,287,0.0,0.0,94,0.02,,,2.52,74,WeatherTracker,2013-02-26 19:12:00,
2013-02-26 14:17:00,33.8,32.3,29.50,WNW,287,0.0,0.0,94,0.02,,,2.52,100,WeatherTracker,2013-02-26 19:17:00,
2013-02-26 14:22:00,33.7,32.2,29.49,WNW,287,0.0,0.0,94,0.02,,,2.52,127,WeatherTracker,2013-02-26 19:22:00,
2013-02-26 14:27:00,33.7,32.2,29.50,WNW,287,0.0,0.0,94,0.01,,,2.52,77,WeatherTracker,2013-02-26 19:27:00,
2013-02-26 14:32:00,33.7,32.2,29.49,WNW,287,0.0,0.0,94,0.01,,,2.52,114,WeatherTracker,2013-02-26 19:32:00,
2013-02-26 14:37:00,33.8,32.3,29.50,WNW,287,0.0,0.0,94,0.02,,,2.53,86,WeatherTracker,2013-02-26 19:37:00,
2013-02-26 14:42:00,33.9,32.4,29.49,WNW,287,0.0,0.0,94,0.02,,,2.53,84,WeatherTracker,2013-02-26 19:42:00,
2013-02-26 14:47:00,33.9,32.4,29.50,WNW,287,0.0,0.0,94,0.01,,,2.53,69,WeatherTracker,2013-02-26 19:47:00,
2013-02-26 14:52:00,33.9,32.1,29.50,WNW,287,0.0,0.0,93,0.01,,,2.53,104,WeatherTracker,2013-02-26 19:52:00,
2013-02-26 14:57:00,33.9,32.1,29.49,WNW,287,0.0,0.0,93,0.01,,,2.53,83,WeatherTracker,2013-02-26 19:57:00,
2013-02-26 15:02:00,33.9,32.1,29.49,WNW,287,0.0,0.0,93,0.01,,,2.53,76,WeatherTracker,2013-02-26 20:02:00,
2013-02-26 15:07:00,33.9,32.1,29.49,WNW,287,0.0,0.0,93,0.01,,,2.53,69,WeatherTracker,2013-02-26 20:07:00,
2013-02-26 15:13:00,34.0,32.2,29.49,WNW,287,0.0,0.0,93,0.01,,,2.53,74,WeatherTracker,2013-02-26 20:13:00,
2013-02-26 15:18:00,34.1,32.6,29.49,WNW,287,0.0,0.0,94,0.01,,,2.53,79,WeatherTracker,2013-02-26 20:18:00,
2013-02-26 15:23:00,34.3,32.8,29.49,WNW,287,0.0,0.0,94,0.01,,,2.53,76,WeatherTracker,2013-02-26 20:23:00,
2013-02-26 15:28:00,34.4,32.9,29.49,WNW,287,0.0,0.0,94,0.01,,,2.53,104,WeatherTracker,2013-02-26 20:28:00,
2013-02-26 15:33:00,34.4,32.9,29.50,WNW,287,0.0,0.0,94,0.01,,,2.53,76,WeatherTracker,2013-02-26 20:33:00,
2013-02-26 15:38:00,34.4,32.9,29.49,WNW,287,0.0,0.0,94,0.00,,,2.53,90,WeatherTracker,2013-02-26 20:38:00,
2013-02-26 15:43:00,34.4,32.6,29.49,WNW,287,0.0,0.0,93,0.00,,,2.53,90,WeatherTracker,2013-02-26 20:43:00,
2013-02-26 15:48:00,34.4,32.6,29.48,WNW,287,0.0,0.0,93,0.00,,,2.53,86,WeatherTracker,2013-02-26 20:48:00,
2013-02-26 15:53:00,34.5,32.7,29.48,WNW,287,0.0,0.0,93,0.00,,,2.53,69,WeatherTracker,2013-02-26 20:53:00,
2013-02-26 15:58:00,34.6,32.8,29.48,WNW,287,0.0,0.0,93,0.00,,,2.53,63,WeatherTracker,2013-02-26 20:58:00,
2013-02-26 16:03:00,34.6,32.8,29.48,WNW,287,0.0,0.0,93,0.00,,,2.53,70,WeatherTracker,2013-02-26 21:03:00,
2013-02-26 16:08:00,34.6,32.8,29.48,WNW,287,0.0,0.0,93,0.00,,,2.53,69,WeatherTracker,2013-02-26 21:08:00,
2013-02-26 16:13:00,34.6,32.8,29.48,WNW,287,0.0,0.0,93,0.00,,,2.53,53,WeatherTracker,2013-02-26 21:13:00,
2013-02-26 16:18:00,34.7,32.9,29.48,WNW,287,0.0,0.0,93,0.00,,,2.53,60,WeatherTracker,2013-02-26 21:18:00,
2013-02-26 16:23:00,34.8,33.0,29.48,WNW,287,0.0,0.0,93,0.00,,,2.53,58,WeatherTracker,2013-02-26 21:23:00,
2013-02-26 16:28:00,34.9,33.1,29.47,WNW,287,0.0,0.0,93,0.00,,,2.53,67,WeatherTracker,2013-02-26 21:28:00,
2013-02-26 16:33:00,34.9,33.1,29.47,WNW,287,0.0,0.0,93,0.00,,,2.53,69,WeatherTracker,2013-02-26 21:33:00,
2013-02-26 16:38:00,35.0,33.2,29.47,WNW,287,0.0,0.0,93,0.00,,,2.53,65,WeatherTracker,2013-02-26 21:38:00,
2013-02-26 16:43:00,35.0,33.2,29.47,WNW,287,0.0,0.0,93,0.00,,,2.53,58,WeatherTracker,2013-02-26 21:43:00,
2013-02-26 16:48:00,34.8,33.0,29.46,WNW,287,0.0,0.0,93,0.00,,,2.53,90,WeatherTracker,2013-02-26 21:48:00,
2013-02-26 16:54:00,34.8,33.0,29.46,WNW,287,1.0,0.0,93,0.00,,,2.53,47,WeatherTracker,2013-02-26 21:54:00,
2013-02-26 16:59:00,34.9,33.4,29.47,WNW,287,0.0,0.0,94,0.00,,,2.53,33,WeatherTracker,2013-02-26 21:59:00,
2013-02-26 17:04:00,35.2,33.6,29.46,WNW,287,0.0,0.0,94,0.00,,,2.53,40,WeatherTracker,2013-02-26 22:04:00,
2013-02-26 17:09:00,35.3,33.7,29.46,WNW,287,0.0,0.0,94,0.00,,,2.53,39,WeatherTracker,2013-02-26 22:09:00,
2013-02-26 17:14:00,35.3,33.7,29.46,WNW,287,0.0,0.0,94,0.00,,,2.53,37,WeatherTracker,2013-02-26 22:14:00,
2013-02-26 17:19:00,35.2,33.6,29.46,WNW,287,2.0,0.0,94,0.00,,,2.53,42,WeatherTracker,2013-02-26 22:19:00,
2013-02-26 17:24:00,35.2,33.6,29.46,WSW,241,1.0,0.0,94,0.00,,,2.53,39,WeatherTracker,2013-02-26 22:24:00,
2013-02-26 17:29:00,35.3,33.7,29.46,SSW,200,0.0,0.0,94,0.00,,,2.53,32,WeatherTracker,2013-02-26 22:29:00,
2013-02-26 17:34:00,35.4,33.8,29.45,SSW,200,1.0,0.0,94,0.00,,,2.53,18,WeatherTracker,2013-02-26 22:34:00,
2013-02-26 17:39:00,35.4,33.8,29.45,SSW,200,0.0,0.0,94,0.00,,,2.53,53,WeatherTracker,2013-02-26 22:39:00,
2013-02-26 17:44:00,35.2,33.6,29.45,SSW,200,0.0,0.0,94,0.00,,,2.53,18,WeatherTracker,2013-02-26 22:44:00,
2013-02-26 17:49:00,35.1,33.6,29.46,SW,215,2.0,0.0,94,0.00,,,2.53,30,WeatherTracker,2013-02-26 22:49:00,
2013-02-26 17:54:00,34.9,33.4,29.47,SW,215,0.0,0.0,94,0.00,,,2.53,35,WeatherTracker,2013-02-26 22:54:00,
2013-02-26 17:59:00,34.7,33.2,29.47,SW,215,0.0,0.0,94,0.00,,,2.53,30,WeatherTracker,2013-02-26 22:59:00,
2013-02-26 18:04:00,34.6,33.1,29.48,SW,215,1.0,0.0,94,0.00,,,2.53,14,WeatherTracker,2013-02-26 23:04:00,
2013-02-26 18:09:00,34.7,33.2,29.48,SW,215,0.0,0.0,94,0.00,,,2.53,9,WeatherTracker,2013-02-26 23:09:00,
2013-02-26 18:14:00,34.8,33.3,29.49,SW,215,0.0,0.0,94,0.00,,,2.53,5,WeatherTracker,2013-02-26 23:14:00,
2013-02-26 18:19:00,34.9,33.4,29.49,SW,215,0.0,0.0,94,0.00,,,2.53,5,WeatherTracker,2013-02-26 23:19:00,
2013-02-26 18:24:00,34.8,33.3,29.49,SW,215,0.0,0.0,94,0.00,,,2.53,0,WeatherTracker,2013-02-26 23:24:00,
2013-02-26 18:29:00,34.7,33.2,29.50,SW,215,2.0,0.0,94,0.00,,,2.53,0,WeatherTracker,2013-02-26 23:29:00,
2013-02-26 18:34:00,34.6,33.1,29.50,SW,215,0.0,0.0,94,0.00,,,2.53,0,WeatherTracker,2013-02-26 23:34:00,
2013-02-26 18:39:00,34.6,33.1,29.50,SW,215,0.0,0.0,94,0.00,,,2.53,0,WeatherTracker,2013-02-26 23:39:00,
2013-02-26 18:45:00,34.4,32.9,29.50,SW,215,0.0,0.0,94,0.00,,,2.53,0,WeatherTracker,2013-02-26 23:45:00,
2013-02-26 18:50:00,34.4,32.9,29.50,SW,215,0.0,0.0,94,0.00,,,2.53,0,WeatherTracker,2013-02-26 23:50:00,
2013-02-26 18:55:00,34.4,32.9,29.50,SW,215,0.0,0.0,94,0.00,,,2.53,0,WeatherTracker,2013-02-26 23:55:00,
2013-02-26 19:00:00,34.2,32.7,29.50,SW,215,0.0,0.0,94,0.00,,,2.53,0,WeatherTracker,2013-02-27 00:00:00,
2013-02-26 19:05:00,34.1,32.6,29.51,SW,215,0.0,0.0,94,0.00,,,2.53,0,WeatherTracker,2013-02-27 00:05:00,
2013-02-26 19:10:00,33.8,32.3,29.51,SW,215,0.0,0.0,94,0.00,,,2.53,0,WeatherTracker,2013-02-27 00:10:00,
2013-02-26 19:15:00,33.7,32.2,29.52,SW,215,0.0,0.0,94,0.00,,,2.53,0,WeatherTracker,2013-02-27 00:15:00,
2013-02-26 19:20:00,33.6,32.1,29.52,SW,215,0.0,0.0,94,0.00,,,2.53,0,WeatherTracker,2013-02-27 00:20:00,
2013-02-26 19:25:00,33.5,32.0,29.52,SW,215,0.0,0.0,94,0.00,,,2.53,0,WeatherTracker,2013-02-27 00:25:00,
2013-02-26 19:30:00,33.4,31.9,29.52,SW,215,0.0,0.0,94,0.00,,,2.53,0,WeatherTracker,2013-02-27 00:30:00,
2013-02-26 19:35:00,33.4,31.9,29.52,SW,215,0.0,0.0,94,0.00,,,2.53,0,WeatherTracker,2013-02-27 00:35:00,
2013-02-26 19:40:00,33.4,31.9,29.52,SW,215,0.0,0.0,94,0.00,,,2.53,0,WeatherTracker,2013-02-27 00:40:00,
2013-02-26 19:46:00,33.5,32.0,29.52,SW,215,0.0,0.0,94,0.00,,,2.53,0,WeatherTracker,2013-02-27 00:46:00,
2013-02-26 19:51:00,33.7,32.2,29.52,SW,215,0.0,0.0,94,0.00,,,2.53,0,WeatherTracker,2013-02-27 00:51:00,
2013-02-26 19:56:00,33.8,32.3,29.52,SW,215,0.0,0.0,94,0.00,,,2.53,0,WeatherTracker,2013-02-27 00:56:00,
2013-02-26 20:01:00,33.9,32.4,29.52,SW,215,0.0,0.0,94,0.00,,,2.53,0,WeatherTracker,2013-02-27 01:01:00,
2013-02-26 20:06:00,34.2,32.7,29.52,SW,215,0.0,0.0,94,0.00,,,2.53,0,WeatherTracker,2013-02-27 01:06:00,
2013-02-26 20:11:00,34.4,33.1,29.52,SW,215,0.0,0.0,95,0.00,,,2.53,0,WeatherTracker,2013-02-27 01:11:00,
2013-02-26 20:16:00,34.8,33.5,29.52,SW,215,1.0,0.0,95,0.00,,,2.53,0,WeatherTracker,2013-02-27 01:16:00,
2013-02-26 20:21:00,35.1,33.8,29.52,SW,215,1.0,0.0,95,0.00,,,2.53,0,WeatherTracker,2013-02-27 01:21:00,
2013-02-26 20:26:00,35.3,34.0,29.53,SW,215,0.0,0.0,95,0.00,,,2.53,0,WeatherTracker,2013-02-27 01:26:00,
2013-02-26 20:31:00,35.5,34.2,29.53,SW,215,0.0,0.0,95,0.00,,,2.53,0,WeatherTracker,2013-02-27 01:31:00,
2013-02-26 20:36:00,35.7,34.4,29.53,SW,215,0.0,0.0,95,0.00,,,2.53,0,WeatherTracker,2013-02-27 01:36:00,
2013-02-26 20:41:00,35.9,34.6,29.53,SW,215,0.0,0.0,95,0.00,,,2.53,0,WeatherTracker,2013-02-27 01:41:00,
2013-02-26 20:46:00,36.1,34.8,29.53,SW,215,1.0,0.0,95,0.00,,,2.53,0,WeatherTracker,2013-02-27 01:46:00,
2013-02-26 20:51:00,36.3,35.0,29.53,South,178,2.0,0.0,95,0.00,,,2.53,0,WeatherTracker,2013-02-27 01:51:00,
2013-02-26 20:56:00,36.4,35.1,29.53,SE,133,0.0,0.0,95,0.00,,,2.53,0,WeatherTracker,2013-02-27 01:56:00,
2013-02-26 21:01:00,36.3,35.0,29.53,SSW,210,1.0,0.0,95,0.00,,,2.53,0,WeatherTracker,2013-02-27 02:01:00,
2013-02-26 21:06:00,36.1,34.8,29.53,SW,221,0.0,0.0,95,0.00,,,2.53,0,WeatherTracker,2013-02-27 02:06:00,
2013-02-26 21:11:00,35.9,34.6,29.53,SW,221,0.0,0.0,95,0.00,,,2.53,0,WeatherTracker,2013-02-27 02:11:00,
2013-02-26 21:16:00,35.7,34.1,29.53,SW,221,1.0,0.0,94,0.00,,,2.53,0,WeatherTracker,2013-02-27 02:16:00,
2013-02-26 21:21:00,35.6,34.0,29.53,SW,221,0.0,0.0,94,0.00,,,2.53,0,WeatherTracker,2013-02-27 02:21:00,
2013-02-26 21:26:00,35.3,33.7,29.53,SW,221,0.0,0.0,94,0.00,,,2.53,0,WeatherTracker,2013-02-27 02:26:00,
2013-02-26 21:32:00,35.3,33.7,29.53,SW,221,1.0,0.0,94,0.00,,,2.53,0,WeatherTracker,2013-02-27 02:32:00,
2013-02-26 21:37:00,35.2,33.6,29.53,SW,222,0.0,0.0,94,0.00,,,2.53,0,WeatherTracker,2013-02-27 02:37:00,
2013-02-26 21:42:00,35.1,33.6,29.53,SW,222,0.0,0.0,94,0.00,,,2.53,0,WeatherTracker,2013-02-27 02:42:00,
2013-02-26 21:47:00,34.8,33.3,29.52,South,190,1.0,0.0,94,0.00,,,2.53,0,WeatherTracker,2013-02-27 02:47:00,
2013-02-26 21:52:00,34.6,33.1,29.52,South,190,2.0,0.0,94,0.00,,,2.53,0,WeatherTracker,2013-02-27 02:52:00,
2013-02-26 21:57:00,34.5,33.0,29.52,SSE,163,0.0,0.0,94,0.00,,,2.53,0,WeatherTracker,2013-02-27 02:57:00,
2013-02-26 22:02:00,34.5,33.0,29.52,SSE,163,0.0,0.0,94,0.00,,,2.53,0,WeatherTracker,2013-02-27 03:02:00,
2013-02-26 22:07:00,34.6,33.1,29.53,SSE,163,0.0,0.0,94,0.00,,,2.53,0,WeatherTracker,2013-02-27 03:07:00,
2013-02-26 22:12:00,34.7,33.2,29.53,SSE,163,0.0,0.0,94,0.00,,,2.53,0,WeatherTracker,2013-02-27 03:12:00,
2013-02-26 22:17:00,34.8,33.3,29.53,SSE,163,0.0,0.0,94,0.00,,,2.53,0,WeatherTracker,2013-02-27 03:17:00,
2013-02-26 22:22:00,34.9,33.4,29.53,SSE,163,0.0,0.0,94,0.00,,,2.53,0,WeatherTracker,2013-02-27 03:22:00,
2013-02-26 22:27:00,35.0,33.5,29.53,SSE,163,0.0,0.0,94,0.00,,,2.53,0,WeatherTracker,2013-02-27 03:27:00,
2013-02-26 22:32:00,35.0,33.5,29.52,SSE,163,0.0,0.0,94,0.00,,,2.53,0,WeatherTracker,2013-02-27 03:32:00,
2013-02-26 22:37:00,34.8,33.3,29.52,SSE,163,1.0,0.0,94,0.00,,,2.53,0,WeatherTracker,2013-02-27 03:37:00,
2013-02-26 22:42:00,34.7,33.2,29.53,SSE,163,0.0,0.0,94,0.00,,,2.53,0,WeatherTracker,2013-02-27 03:42:00,
2013-02-26 22:47:00,34.6,33.1,29.52,SSE,163,0.0,0.0,94,0.00,,,2.53,0,WeatherTracker,2013-02-27 03:47:00,
2013-02-26 22:52:00,34.6,33.1,29.52,SSE,163,1.0,0.0,94,0.00,,,2.53,0,WeatherTracker,2013-02-27 03:52:00,
2013-02-26 22:57:00,34.4,32.9,29.52,SSE,163,0.0,0.0,94,0.00,,,2.53,0,WeatherTracker,2013-02-27 03:57:00,
2013-02-26 23:02:00,34.4,32.9,29.52,SSE,163,1.0,0.0,94,0.00,,,2.53,0,WeatherTracker,2013-02-27 04:02:00,
2013-02-26 23:07:00,34.4,32.9,29.52,SSE,163,0.0,0.0,94,0.00,,,2.53,0,WeatherTracker,2013-02-27 04:07:00,
2013-02-26 23:12:00,34.4,32.9,29.52,SSE,163,0.0,0.0,94,0.00,,,2.53,0,WeatherTracker,2013-02-27 04:12:00,
2013-02-26 23:17:00,34.4,32.9,29.52,SSE,163,0.0,0.0,94,0.00,,,2.53,0,WeatherTracker,2013-02-27 04:17:00,
2013-02-26 23:22:00,34.5,33.0,29.52,SSE,163,0.0,0.0,94,0.00,,,2.53,0,WeatherTracker,2013-02-27 04:22:00,
2013-02-26 23:27:00,34.7,33.2,29.52,SSE,163,0.0,0.0,94,0.00,,,2.53,0,WeatherTracker,2013-02-27 04:27:00,
2013-02-26 23:32:00,34.6,32.8,29.53,SSE,163,0.0,0.0,93,0.00,,,2.53,0,WeatherTracker,2013-02-27 04:32:00,
2013-02-26 23:37:00,34.5,32.7,29.52,SSE,163,0.0,0.0,93,0.00,,,2.53,0,WeatherTracker,2013-02-27 04:37:00,
2013-02-26 23:42:00,34.4,32.6,29.53,SSE,163,0.0,0.0,93,0.00,,,2.53,0,WeatherTracker,2013-02-27 04:42:00,
2013-02-26 23:47:00,34.4,32.6,29.53,SSE,163,0.0,0.0,93,0.00,,,2.53,0,WeatherTracker,2013-02-27 04:47:00,
2013-02-26 23:52:00,34.4,32.6,29.53,SSE,163,0.0,0.0,93,0.00,,,2.53,0,WeatherTracker,2013-02-27 04:52:00,
2013-02-26 23:57:00,34.4,32.6,29.53,SSE,163,0.0,0.0,93,0.00,,,2.53,0,WeatherTracker,2013-02-27 04:57:00,